Página principal
METAR-TAF:

METAR-TAF

Aeroportos :

Fuerteventura, Espanha

latitude: 28-27N, longitude: 013-52W, altura: 22 m

Observação actual do tempo

O boletim foi feito há 27 minutos, às 11:00 UTC
Vento 13 kt de norte
Temperatura 27°C
Humidade 58%
Pressão 1015 hPa
Visibilidade 10 km ou mais
Poucas nuvensa uma altura de 2000 ft

METAR: GCFV 191100Z 01013KT 9999 FEW020 27/18 Q1015

Hora: 12:27 (11:27 UTC)

Previsão

O boletim foi feito há 3 horas e 27 minutos, às 08:00 UTC
Previsão válida de 19 às 09 UTC a 20 às 09 UTC
Vento 13 kt de nordeste
Visibilidade 10 km ou mais
Poucas nuvensa uma altura de 2500 ft
Temporariamente
de 19 às 22 UTC a 20 às 08 UTC
Vento 9 kt de norte

TAF: GCFV 190800Z 1909/2009 05013KT 9999 FEW025 TX26/1914Z TN23/2006Z TEMPO 1922/2008 35009KT

Observações e previsões do tempo de mais de 4000 aeroportos (mensagens METAR e TAF).

As estações disponíveis são os pontos amarelos e vermelhos sobre o mapa.

Mova o rato sobre o mapa para ver o nome da estação.

Depois clique no ponto para visualizar as observações e previsões meteorológicas.

Para alterar o mapa : clique nos botões verdes com uma cruz preta para aumentar o zoom; no botão verde com uma pitada de zoom; ou nas setas verdes para mapas adjacentes.


METAR-TAF: